createdAt,value
2019-03-20T00:01:46.487Z,59.7
2019-03-20T00:06:51.708Z,59.7
2019-03-20T00:11:56.868Z,59.5
2019-03-20T00:17:03.924Z,59.9
2019-03-20T00:22:09.548Z,60.1
2019-03-20T00:27:14.792Z,60.2
2019-03-20T00:32:20.294Z,59.7
2019-03-20T00:37:25.304Z,59.3
2019-03-20T00:42:30.842Z,58.8
2019-03-20T00:47:36.174Z,58.4
2019-03-20T00:52:41.332Z,58.1
2019-03-20T00:57:46.446Z,57.7
2019-03-20T01:02:51.694Z,57.4
2019-03-20T01:07:56.954Z,57.2
2019-03-20T01:13:02.121Z,57
2019-03-20T01:18:07.578Z,57.1
2019-03-20T01:23:12.803Z,56.9
2019-03-20T01:28:18.205Z,57.2
2019-03-20T01:33:22.020Z,57.5
2019-03-20T01:38:27.301Z,57.9
2019-03-20T01:43:32.514Z,58.1
2019-03-20T01:48:37.776Z,58.1
2019-03-20T01:53:43.027Z,58.4
2019-03-20T01:58:48.363Z,58.9
2019-03-20T02:03:53.936Z,58.7
2019-03-20T02:08:59.040Z,58.6
2019-03-20T02:14:04.406Z,58.8
2019-03-20T02:19:12.178Z,58.3
2019-03-20T02:24:18.035Z,58.3
2019-03-20T02:29:23.135Z,58.1
2019-03-20T02:34:28.305Z,57.9
2019-03-20T02:39:33.445Z,57.7
2019-03-20T02:44:38.807Z,57.8
2019-03-20T02:49:44.010Z,57.9
2019-03-20T02:54:49.157Z,58
2019-03-20T02:59:54.539Z,58
2019-03-20T03:05:00.721Z,58.5
2019-03-20T03:10:06.079Z,58.4
2019-03-20T03:15:11.385Z,58.3
2019-03-20T03:20:16.689Z,58.2
2019-03-20T03:25:24.667Z,58.2
2019-03-20T03:30:28.657Z,58.1
2019-03-20T03:35:32.503Z,58
2019-03-20T03:40:37.590Z,58.1
2019-03-20T03:45:44.188Z,58.4
2019-03-20T03:50:55.083Z,58.8
2019-03-20T03:55:50.340Z,58.8
2019-03-20T04:00:55.293Z,58.9
2019-03-20T04:06:04.831Z,59.4
2019-03-20T04:11:10.147Z,59.4
2019-03-20T04:16:15.371Z,59.7
2019-03-20T04:21:19.328Z,59.7
2019-03-20T04:26:24.849Z,59.8
2019-03-20T04:31:29.980Z,59.9
2019-03-20T04:36:49.191Z,60.3
2019-03-20T04:41:44.228Z,60.4
2019-03-20T04:46:49.416Z,61
2019-03-20T04:51:54.568Z,61.4
2019-03-20T04:57:00.034Z,61.8
2019-03-20T05:02:05.149Z,62.1
2019-03-20T05:07:10.758Z,62.5
2019-03-20T05:12:16.133Z,62.7
2019-03-20T05:17:21.306Z,62.9
2019-03-20T05:22:26.842Z,63.1
2019-03-20T05:27:32.479Z,63.2
2019-03-20T05:32:37.541Z,63.4
2019-03-20T05:37:43.048Z,63.7
2019-03-20T05:42:48.086Z,63.7
2019-03-20T05:47:53.445Z,62.8
2019-03-20T05:52:58.521Z,62.1
2019-03-20T05:58:03.693Z,61.9
2019-03-20T06:03:08.791Z,61.4
2019-03-20T06:08:14.799Z,61.2
2019-03-20T06:13:19.823Z,61.2
2019-03-20T06:18:25.327Z,61.5
2019-03-20T06:23:30.846Z,60.7
2019-03-20T06:28:36.049Z,59.6
2019-03-20T06:33:41.445Z,58.4
2019-03-20T06:38:46.752Z,58.1
2019-03-20T06:43:52.034Z,56.6
2019-03-20T06:48:58.119Z,54.1
2019-03-20T06:54:03.387Z,51.4
2019-03-20T06:59:08.831Z,49.9
2019-03-20T07:04:14.009Z,48.3
2019-03-20T07:09:20.226Z,43.4
2019-03-20T07:14:25.432Z,43.4
2019-03-20T07:19:31.058Z,42.2
2019-03-20T07:24:36.129Z,39.4
2019-03-20T07:29:41.466Z,39
2019-03-20T07:34:44.919Z,37.6
2019-03-20T07:39:50.530Z,36.6
2019-03-20T07:44:55.836Z,34.5
2019-03-20T07:50:01.117Z,32.1
2019-03-20T07:55:06.212Z,30.2
2019-03-20T08:00:11.823Z,29.4
2019-03-20T08:05:16.916Z,28.5
2019-03-20T08:10:22.189Z,27
2019-03-20T08:15:27.717Z,26.3
2019-03-20T08:20:33.857Z,25.6
2019-03-20T08:25:37.854Z,25.6
2019-03-20T08:35:46.744Z,24.7
2019-03-20T08:40:52.050Z,23.5
2019-03-20T08:45:57.048Z,23.4
2019-03-20T08:51:02.345Z,24.3
2019-03-20T08:56:07.530Z,25.1
2019-03-20T09:01:12.664Z,25.4
2019-03-20T09:06:17.594Z,26
2019-03-20T09:16:27.358Z,24.7
2019-03-20T09:21:32.834Z,24.8
2019-03-20T09:26:37.902Z,25.1
2019-03-20T09:31:41.541Z,24.1
2019-03-20T09:36:46.740Z,23.5
2019-03-20T09:41:52.122Z,23.9
2019-03-20T09:46:55.814Z,24.3
2019-03-20T09:52:01.617Z,23.8
2019-03-20T09:57:06.827Z,23.2
2019-03-20T10:02:11.983Z,23.2
2019-03-20T10:07:17.076Z,22.4
2019-03-20T10:12:21.544Z,21.5
2019-03-20T10:17:26.732Z,20.7
2019-03-20T10:22:32.247Z,20
2019-03-20T10:27:37.630Z,20.1
2019-03-20T10:32:42.957Z,19.6
2019-03-20T10:37:48.024Z,20
2019-03-20T10:42:54.021Z,18.8
2019-03-20T10:47:59.366Z,18.8
2019-03-20T10:53:04.559Z,19.5
2019-03-20T10:58:10.256Z,19.1
2019-03-20T11:03:15.449Z,19.2
2019-03-20T11:08:20.647Z,18.5
2019-03-20T11:13:25.979Z,17.3
2019-03-20T11:18:31.139Z,17.5
2019-03-20T11:23:36.281Z,18.3
2019-03-20T11:28:41.959Z,18
2019-03-20T11:33:47.326Z,18.1
2019-03-20T11:38:52.366Z,18.4
2019-03-20T11:43:57.754Z,18.2
2019-03-20T11:49:02.769Z,17.6
2019-03-20T11:54:08.161Z,17.2
2019-03-20T11:59:13.589Z,16.9
2019-03-20T12:04:19.180Z,16
2019-03-20T12:09:24.270Z,16
2019-03-20T12:14:29.543Z,16.1
2019-03-20T12:19:46.470Z,16.3
2019-03-20T12:24:40.642Z,16.2
2019-03-20T12:29:45.612Z,15.3
2019-03-20T12:34:50.916Z,15.8
2019-03-20T12:39:56.129Z,16.1
2019-03-20T12:45:01.791Z,15.8
2019-03-20T12:50:06.949Z,16.2
2019-03-20T12:55:12.243Z,16.6
2019-03-20T13:00:17.417Z,16.4
2019-03-20T13:05:22.548Z,17.7
2019-03-20T13:10:28.159Z,20.2
2019-03-20T13:15:36.071Z,21.9
2019-03-20T13:20:39.711Z,21.8
2019-03-20T13:25:45.127Z,23.3
2019-03-20T13:30:51.667Z,25.1
2019-03-20T13:35:56.796Z,25.1
2019-03-20T13:41:02.148Z,25.5
2019-03-20T13:46:07.954Z,27.6
2019-03-20T13:51:11.790Z,27.6
2019-03-20T13:56:17.080Z,28.4
2019-03-20T14:01:22.056Z,29.4
2019-03-20T14:06:25.887Z,29.5
2019-03-20T14:11:31.069Z,29.8
2019-03-20T14:16:36.503Z,30
2019-03-20T14:21:41.806Z,30.6
2019-03-20T14:26:47.359Z,31.1
2019-03-20T14:31:52.374Z,31.2
2019-03-20T14:36:57.961Z,31.9
2019-03-20T14:42:01.730Z,31.8
2019-03-20T14:47:06.938Z,31.7
2019-03-20T14:52:10.589Z,31.9
2019-03-20T14:57:16.088Z,32
2019-03-20T15:02:21.067Z,32.3
2019-03-20T15:07:26.303Z,31.9
2019-03-20T15:12:31.568Z,32.7
2019-03-20T15:17:36.964Z,33.4
2019-03-20T15:22:42.453Z,33.3
2019-03-20T15:27:47.919Z,33.3
2019-03-20T15:32:51.633Z,33.9
2019-03-20T15:37:57.148Z,34.1
2019-03-20T15:43:04.239Z,34.1
2019-03-20T15:48:13.317Z,34.2
2019-03-20T15:53:22.613Z,33.3
2019-03-20T15:58:30.172Z,33.4
2019-03-20T16:03:29.824Z,33.4
2019-03-20T16:08:40.120Z,33.2
2019-03-20T16:13:42.840Z,33.3
2019-03-20T16:18:50.649Z,33.5
2019-03-20T16:23:55.906Z,33.6
2019-03-20T16:29:00.154Z,34
2019-03-20T16:34:05.285Z,34.1
2019-03-20T16:39:10.564Z,34.1
2019-03-20T16:44:15.621Z,34.5
2019-03-20T16:49:20.991Z,34.5
2019-03-20T16:54:26.184Z,34.5
2019-03-20T16:59:31.701Z,34.5
2019-03-20T17:04:31.837Z,34.9
2019-03-20T17:09:37.503Z,35.1
2019-03-20T17:14:44.716Z,35.8
2019-03-20T17:19:42.923Z,35.8
2019-03-20T17:24:51.011Z,36.3
2019-03-20T17:29:56.319Z,36.7
2019-03-20T17:35:01.546Z,37
2019-03-20T17:40:05.991Z,37.6
2019-03-20T17:45:11.366Z,38.3
2019-03-20T17:50:16.526Z,38.6
2019-03-20T17:55:21.711Z,38.7
2019-03-20T18:00:27.395Z,38.8
2019-03-20T18:05:32.635Z,39.5
2019-03-20T18:10:37.749Z,39.2
2019-03-20T18:15:43.218Z,39.4
2019-03-20T18:20:48.818Z,39.8
2019-03-20T18:25:53.524Z,40.3
2019-03-20T18:30:59.662Z,40.2
2019-03-20T18:36:07.340Z,40.7
2019-03-20T18:41:14.024Z,40.7
2019-03-20T18:46:19.328Z,40.6
2019-03-20T18:51:24.599Z,41.2
2019-03-20T18:56:30.104Z,41.9
2019-03-20T19:01:35.395Z,41.5
2019-03-20T19:06:40.769Z,41.8
2019-03-20T19:11:46.200Z,41.8
2019-03-20T19:16:51.559Z,41.5
2019-03-20T19:21:57.688Z,41.7
2019-03-20T19:27:03.213Z,41.7
2019-03-20T19:32:08.592Z,41.9
2019-03-20T19:37:14.127Z,42
2019-03-20T19:42:23.864Z,42.4
2019-03-20T19:47:29.080Z,42.4
2019-03-20T19:52:34.476Z,42.5
2019-03-20T19:57:40.762Z,42.9
2019-03-20T20:02:46.263Z,43.2
2019-03-20T20:07:51.936Z,43.2
2019-03-20T20:12:57.354Z,43.8
2019-03-20T20:18:02.517Z,44
2019-03-20T20:23:08.201Z,44.9
2019-03-20T20:28:14.224Z,44.7
2019-03-20T20:33:20.021Z,44.6
2019-03-20T20:38:25.200Z,44.6
2019-03-20T20:43:30.685Z,45.1
2019-03-20T20:48:35.681Z,45.6
2019-03-20T20:58:50.638Z,47.2
2019-03-20T21:03:58.294Z,47.4
2019-03-20T21:09:03.458Z,47.3
2019-03-20T21:14:05.089Z,47.5
2019-03-20T21:19:10.155Z,47.9
2019-03-20T21:24:15.729Z,48.4
2019-03-20T21:29:20.883Z,48.4
2019-03-20T21:34:26.238Z,48.5
2019-03-20T21:39:31.505Z,48.7
2019-03-20T21:44:36.783Z,48.6
2019-03-20T21:49:41.937Z,48.6
2019-03-20T21:54:47.272Z,48.5
2019-03-20T21:59:52.515Z,48.9
2019-03-20T22:04:57.874Z,49.2
2019-03-20T22:10:03.124Z,49
2019-03-20T22:15:08.424Z,49.4
2019-03-20T22:20:13.971Z,49.6
2019-03-20T22:25:19.771Z,50.1
2019-03-20T22:30:24.977Z,50.1
2019-03-20T22:35:30.496Z,49.8
2019-03-20T22:40:35.580Z,50.1
2019-03-20T22:45:40.841Z,50.3
2019-03-20T22:50:45.894Z,50.5
2019-03-20T22:55:51.043Z,50.9
2019-03-20T23:00:56.208Z,50.8
2019-03-20T23:06:01.462Z,51.2
2019-03-20T23:11:06.790Z,50.4
2019-03-20T23:16:12.171Z,50.3
2019-03-20T23:21:17.669Z,50.8
2019-03-20T23:26:23.183Z,50.5
2019-03-20T23:31:28.583Z,50.6
2019-03-20T23:36:32.351Z,50.5
2019-03-20T23:41:37.406Z,50.6
2019-03-20T23:46:42.785Z,50.6
2019-03-20T23:51:48.000Z,50.8
2019-03-20T23:56:53.124Z,51
